sensor_id;sensor_type;location;lat;lon;timestamp;temperature;humidity
27870;DHT22;15225;50.730;4.244;2022-10-17T17:21:15;17.80;87.20
27870;DHT22;15225;50.730;4.244;2022-10-17T17:23:42;17.20;89.40
27870;DHT22;15225;50.730;4.244;2022-10-17T17:26:19;17.50;90.00
27870;DHT22;15225;50.730;4.244;2022-10-17T17:28:46;18.00;80.10
27870;DHT22;15225;50.730;4.244;2022-10-17T17:31:14;18.20;56.70
27870;DHT22;15225;50.730;4.244;2022-10-17T17:33:41;19.10;44.80
27870;DHT22;15225;50.730;4.244;2022-10-17T17:36:07;19.30;16.50
27870;DHT22;15225;50.730;4.244;2022-10-17T17:38:35;19.70;1.00
27870;DHT22;15225;50.730;4.244;2022-10-17T17:41:01;19.90;1.00
27870;DHT22;15225;50.730;4.244;2022-10-17T17:43:28;20.00;1.00
27870;DHT22;15225;50.730;4.244;2022-10-17T17:45:54;19.90;1.00
27870;DHT22;15225;50.730;4.244;2022-10-17T17:48:20;19.90;1.00
27870;DHT22;15225;50.730;4.244;2022-10-17T17:50:46;20.00;1.00
27870;DHT22;15225;50.730;4.244;2022-10-17T17:53:13;20.00;1.00
27870;DHT22;15225;50.730;4.244;2022-10-17T17:55:39;20.00;1.00
27870;DHT22;15225;50.730;4.244;2022-10-17T17:58:05;20.00;1.00
27870;DHT22;15225;50.730;4.244;2022-10-17T18:00:36;19.90;1.00
27870;DHT22;15225;50.730;4.244;2022-10-17T18:03:02;19.90;1.00
27870;DHT22;15225;50.730;4.244;2022-10-17T18:05:31;19.90;1.00
27870;DHT22;15225;50.730;4.244;2022-10-17T18:07:57;19.80;1.00
27870;DHT22;15225;50.730;4.244;2022-10-17T18:10:23;19.80;1.00
27870;DHT22;15225;50.730;4.244;2022-10-17T18:12:48;19.80;1.00
27870;DHT22;15225;50.730;4.244;2022-10-17T18:15:14;19.80;1.00
27870;DHT22;15225;50.730;4.244;2022-10-17T18:17:40;19.80;1.00
27870;DHT22;15225;50.730;4.244;2022-10-17T18:20:06;19.80;1.00
27870;DHT22;15225;50.730;4.244;2022-10-17T18:22:32;19.90;1.00
27870;DHT22;15225;50.730;4.244;2022-10-17T18:25:00;19.90;1.00
27870;DHT22;15225;50.730;4.244;2022-10-17T18:27:26;19.90;1.00
27870;DHT22;15225;50.730;4.244;2022-10-17T18:29:51;19.90;1.00
27870;DHT22;15225;50.730;4.244;2022-10-17T18:32:17;20.00;1.00
27870;DHT22;15225;50.730;4.244;2022-10-17T18:34:43;19.90;1.00
27870;DHT22;15225;50.730;4.244;2022-10-17T18:37:09;19.90;1.00
27870;DHT22;15225;50.730;4.244;2022-10-17T18:39:35;19.90;1.00
27870;DHT22;15225;50.730;4.244;2022-10-17T18:42:00;19.90;1.00
27870;DHT22;15225;50.730;4.244;2022-10-17T18:44:26;20.00;1.00
27870;DHT22;15225;50.730;4.244;2022-10-17T18:46:52;20.00;1.00
27870;DHT22;15225;50.730;4.244;2022-10-17T18:49:19;20.00;1.00
27870;DHT22;15225;50.730;4.244;2022-10-17T18:51:45;20.00;1.00
27870;DHT22;15225;50.730;4.244;2022-10-17T18:54:14;20.10;1.00
27870;DHT22;15225;50.730;4.244;2022-10-17T18:56:41;20.10;1.00
27870;DHT22;15225;50.730;4.244;2022-10-17T18:59:07;20.10;1.00
27870;DHT22;15225;50.730;4.244;2022-10-17T19:01:33;20.10;99.90
27870;DHT22;15225;50.730;4.244;2022-10-17T19:03:59;20.00;99.90
27870;DHT22;15225;50.730;4.244;2022-10-17T19:06:30;19.90;1.00
27870;DHT22;15225;50.730;4.244;2022-10-17T19:09:02;20.00;1.00
27870;DHT22;15225;50.730;4.244;2022-10-17T19:11:30;19.90;99.90
27870;DHT22;15225;50.730;4.244;2022-10-17T19:14:00;19.90;1.00
27870;DHT22;15225;50.730;4.244;2022-10-17T19:16:28;19.90;1.00
27870;DHT22;15225;50.730;4.244;2022-10-17T19:18:58;19.90;1.00
27870;DHT22;15225;50.730;4.244;2022-10-17T19:21:24;19.90;1.00
27870;DHT22;15225;50.730;4.244;2022-10-17T19:23:58;19.80;1.00
27870;DHT22;15225;50.730;4.244;2022-10-17T19:26:26;19.70;1.00
27870;DHT22;15225;50.730;4.244;2022-10-17T19:28:52;19.60;1.00
27870;DHT22;15225;50.730;4.244;2022-10-17T19:31:23;19.70;1.00
27870;DHT22;15225;50.730;4.244;2022-10-17T19:33:50;19.60;1.00
27870;DHT22;15225;50.730;4.244;2022-10-17T19:36:21;19.60;1.00
27870;DHT22;15225;50.730;4.244;2022-10-17T19:38:48;19.50;1.00
27870;DHT22;15225;50.730;4.244;2022-10-17T19:41:15;19.60;1.00
27870;DHT22;15225;50.730;4.244;2022-10-17T19:43:43;19.60;1.00
27870;DHT22;15225;50.730;4.244;2022-10-17T19:46:14;19.70;1.00
27870;DHT22;15225;50.730;4.244;2022-10-17T19:48:40;19.70;1.00
27870;DHT22;15225;50.730;4.244;2022-10-17T19:51:09;19.70;1.00
27870;DHT22;15225;50.730;4.244;2022-10-17T19:53:35;19.70;1.00
27870;DHT22;15225;50.730;4.244;2022-10-17T19:56:01;19.70;1.00
27870;DHT22;15225;50.730;4.244;2022-10-17T19:58:27;19.80;99.90
27870;DHT22;15225;50.730;4.244;2022-10-17T20:00:56;19.80;1.00
27870;DHT22;15225;50.730;4.244;2022-10-17T20:03:23;19.80;99.90
27870;DHT22;15225;50.730;4.244;2022-10-17T20:05:49;19.80;1.00
27870;DHT22;15225;50.730;4.244;2022-10-17T20:08:15;19.80;99.90
27870;DHT22;15225;50.730;4.244;2022-10-17T20:10:42;19.80;1.00
